sensor_id;sensor_type;location;lat;lon;timestamp;pressure;altitude;pressure_sealevel;temperature;humidity
4570;BME280;2297;51.442;6.996;2023-05-01T00:02:21;100478.50;;;14.80;37.32
4570;BME280;2297;51.442;6.996;2023-05-01T00:04:47;100480.44;;;14.75;37.38
4570;BME280;2297;51.442;6.996;2023-05-01T00:07:15;100476.09;;;14.74;37.66
4570;BME280;2297;51.442;6.996;2023-05-01T00:09:42;100472.59;;;14.72;37.56
4570;BME280;2297;51.442;6.996;2023-05-01T00:12:09;100467.41;;;14.69;37.67
4570;BME280;2297;51.442;6.996;2023-05-01T00:14:36;100464.81;;;14.66;37.79
4570;BME280;2297;51.442;6.996;2023-05-01T00:17:03;100460.47;;;14.65;37.69
4570;BME280;2297;51.442;6.996;2023-05-01T00:19:30;100451.72;;;14.61;37.80
4570;BME280;2297;51.442;6.996;2023-05-01T00:21:57;100449.13;;;14.60;37.96
4570;BME280;2297;51.442;6.996;2023-05-01T00:24:25;100444.78;;;14.57;38.10
4570;BME280;2297;51.442;6.996;2023-05-01T00:26:51;100446.56;;;14.57;38.02
4570;BME280;2297;51.442;6.996;2023-05-01T00:29:18;100434.16;;;14.57;37.77
4570;BME280;2297;51.442;6.996;2023-05-01T00:31:44;100434.41;;;14.50;37.99
4570;BME280;2297;51.442;6.996;2023-05-01T00:34:11;100434.47;;;14.48;38.23
4570;BME280;2297;51.442;6.996;2023-05-01T00:36:38;100435.53;;;14.42;37.95
4570;BME280;2297;51.442;6.996;2023-05-01T00:39:04;100424.19;;;14.39;38.07
4570;BME280;2297;51.442;6.996;2023-05-01T00:41:33;100423.34;;;14.37;38.21
4570;BME280;2297;51.442;6.996;2023-05-01T00:44:00;100426.97;;;14.34;38.40
4570;BME280;2297;51.442;6.996;2023-05-01T00:46:27;100418.28;;;14.29;38.50
4570;BME280;2297;51.442;6.996;2023-05-01T00:48:55;100413.09;;;14.26;38.50
4570;BME280;2297;51.442;6.996;2023-05-01T00:51:22;100414.06;;;14.23;38.76
4570;BME280;2297;51.442;6.996;2023-05-01T00:53:50;100412.25;;;14.25;38.81
4570;BME280;2297;51.442;6.996;2023-05-01T00:56:17;100401.50;;;14.28;38.64
4570;BME280;2297;51.442;6.996;2023-05-01T00:58:49;100400.66;;;14.28;38.37
4570;BME280;2297;51.442;6.996;2023-05-01T01:01:16;100396.41;;;14.22;38.70
4570;BME280;2297;51.442;6.996;2023-05-01T01:03:42;100404.41;;;14.21;38.82
4570;BME280;2297;51.442;6.996;2023-05-01T01:06:14;100399.09;;;14.21;38.61
4570;BME280;2297;51.442;6.996;2023-05-01T01:08:42;100388.47;;;14.21;38.76
4570;BME280;2297;51.442;6.996;2023-05-01T01:11:16;100384.78;;;14.25;38.55
4570;BME280;2297;51.442;6.996;2023-05-01T01:13:53;100383.75;;;14.30;38.43
4570;BME280;2297;51.442;6.996;2023-05-01T01:16:22;100376.75;;;14.28;38.70
4570;BME280;2297;51.442;6.996;2023-05-01T01:19:05;100381.22;;;14.26;38.41
4570;BME280;2297;51.442;6.996;2023-05-01T01:21:44;100384.59;;;14.31;38.62
4570;BME280;2297;51.442;6.996;2023-05-01T01:24:25;100376.69;;;14.29;38.78
4570;BME280;2297;51.442;6.996;2023-05-01T01:27:25;100375.09;;;14.24;38.61
4570;BME280;2297;51.442;6.996;2023-05-01T01:30:27;100381.50;;;14.17;39.03
4570;BME280;2297;51.442;6.996;2023-05-01T01:33:20;100375.28;;;14.18;38.92
4570;BME280;2297;51.442;6.996;2023-05-01T01:35:54;100375.38;;;14.14;39.10
4570;BME280;2297;51.442;6.996;2023-05-01T01:38:28;100370.81;;;14.20;38.98
4570;BME280;2297;51.442;6.996;2023-05-01T01:40:58;100369.94;;;14.19;39.30
4570;BME280;2297;51.442;6.996;2023-05-01T01:43:32;100368.88;;;14.25;38.85
4570;BME280;2297;51.442;6.996;2023-05-01T01:46:05;100360.09;;;14.23;38.96
4570;BME280;2297;51.442;6.996;2023-05-01T01:48:36;100367.09;;;14.25;39.32
4570;BME280;2297;51.442;6.996;2023-05-01T01:51:07;100359.97;;;14.26;39.26
4570;BME280;2297;51.442;6.996;2023-05-01T01:53:36;100360.88;;;14.25;39.17
4570;BME280;2297;51.442;6.996;2023-05-01T01:56:06;100352.06;;;14.24;39.18
4570;BME280;2297;51.442;6.996;2023-05-01T01:58:35;100356.50;;;14.24;39.22
4570;BME280;2297;51.442;6.996;2023-05-01T02:01:04;100351.94;;;14.27;38.72
4570;BME280;2297;51.442;6.996;2023-05-01T02:03:32;100346.81;;;14.23;39.18
4570;BME280;2297;51.442;6.996;2023-05-01T02:05:59;100341.44;;;14.24;39.15
4570;BME280;2297;51.442;6.996;2023-05-01T02:08:28;100341.44;;;14.24;39.37
4570;BME280;2297;51.442;6.996;2023-05-01T02:10:56;100339.59;;;14.26;39.17
4570;BME280;2297;51.442;6.996;2023-05-01T02:13:26;100338.84;;;14.23;39.31
4570;BME280;2297;51.442;6.996;2023-05-01T02:15:55;100334.38;;;14.23;39.21
4570;BME280;2297;51.442;6.996;2023-05-01T02:18:24;100326.41;;;14.23;39.12
4570;BME280;2297;51.442;6.996;2023-05-01T02:20:52;100326.41;;;14.23;39.39
4570;BME280;2297;51.442;6.996;2023-05-01T02:23:18;100328.22;;;14.23;39.38
4570;BME280;2297;51.442;6.996;2023-05-01T02:25:47;100315.75;;;14.25;39.41
4570;BME280;2297;51.442;6.996;2023-05-01T02:28:20;100317.53;;;14.24;39.65
4570;BME280;2297;51.442;6.996;2023-05-01T02:30:48;100313.13;;;14.23;39.43
4570;BME280;2297;51.442;6.996;2023-05-01T02:33:14;100312.28;;;14.23;39.54
4570;BME280;2297;51.442;6.996;2023-05-01T02:35:42;100308.69;;;14.24;39.64
4570;BME280;2297;51.442;6.996;2023-05-01T02:38:09;100308.81;;;14.21;39.61
4570;BME280;2297;51.442;6.996;2023-05-01T02:40:37;100302.63;;;14.20;39.86
4570;BME280;2297;51.442;6.996;2023-05-01T02:43:09;100302.56;;;14.22;39.47
4570;BME280;2297;51.442;6.996;2023-05-01T02:45:39;100291.13;;;14.20;39.65
4570;BME280;2297;51.442;6.996;2023-05-01T02:48:08;100294.72;;;14.19;39.61
4570;BME280;2297;51.442;6.996;2023-05-01T02:50:36;100290.31;;;14.18;39.76
4570;BME280;2297;51.442;6.996;2023-05-01T02:53:05;100291.22;;;14.17;39.79
4570;BME280;2297;51.442;6.996;2023-05-01T02:55:32;100287.75;;;14.14;39.69
4570;BME280;2297;51.442;6.996;2023-05-01T02:57:59;100281.56;;;14.14;40.03
4570;BME280;2297;51.442;6.996;2023-05-01T03:00:28;100286.03;;;14.13;40.02
4570;BME280;2297;51.442;6.996;2023-05-01T03:02:55;100283.44;;;14.12;40.12
4570;BME280;2297;51.442;6.996;2023-05-01T03:05:22;100273.81;;;14.08;40.01
4570;BME280;2297;51.442;6.996;2023-05-01T03:07:49;100273.78;;;14.09;39.91
4570;BME280;2297;51.442;6.996;2023-05-01T03:10:15;100270.44;;;14.04;40.20
4570;BME280;2297;51.442;6.996;2023-05-01T03:12:42;100267.72;;;14.06;40.05
4570;BME280;2297;51.442;6.996;2023-05-01T03:15:09;100266.75;;;14.08;39.88
4570;BME280;2297;51.442;6.996;2023-05-01T03:17:38;100262.34;;;14.07;40.08
4570;BME280;2297;51.442;6.996;2023-05-01T03:20:05;100257.75;;;14.12;40.22
4570;BME280;2297;51.442;6.996;2023-05-01T03:22:33;100256.13;;;14.08;40.11
4570;BME280;2297;51.442;6.996;2023-05-01T03:25:00;100252.56;;;14.08;40.17
4570;BME280;2297;51.442;6.996;2023-05-01T03:27:28;100254.50;;;14.04;40.20
4570;BME280;2297;51.442;6.996;2023-05-01T03:29:55;100247.31;;;14.06;40.41
4570;BME280;2297;51.442;6.996;2023-05-01T03:32:22;100246.59;;;14.03;40.32
4570;BME280;2297;51.442;6.996;2023-05-01T03:34:49;100245.72;;;14.02;40.22
4570;BME280;2297;51.442;6.996;2023-05-01T03:37:16;100244.22;;;13.95;40.38
4570;BME280;2297;51.442;6.996;2023-05-01T03:39:43;100237.03;;;13.97;40.81
4570;BME280;2297;51.442;6.996;2023-05-01T03:42:10;100231.09;;;13.90;40.88
4570;BME280;2297;51.442;6.996;2023-05-01T03:44:37;100231.91;;;13.92;40.91
4570;BME280;2297;51.442;6.996;2023-05-01T03:47:04;100225.72;;;13.92;40.78
4570;BME280;2297;51.442;6.996;2023-05-01T03:49:30;100234.63;;;13.91;40.89
4570;BME280;2297;51.442;6.996;2023-05-01T03:51:58;100228.38;;;13.92;40.88
4570;BME280;2297;51.442;6.996;2023-05-01T03:54:25;100227.66;;;13.87;40.76
4570;BME280;2297;51.442;6.996;2023-05-01T03:56:52;100232.88;;;13.90;41.01
4570;BME280;2297;51.442;6.996;2023-05-01T03:59:18;100225.00;;;13.87;41.06
4570;BME280;2297;51.442;6.996;2023-05-01T04:01:45;100225.00;;;13.87;40.79
4570;BME280;2297;51.442;6.996;2023-05-01T04:04:11;100228.63;;;13.86;41.12
4570;BME280;2297;51.442;6.996;2023-05-01T04:06:38;100225.97;;;13.86;41.00
4570;BME280;2297;51.442;6.996;2023-05-01T04:09:06;100221.63;;;13.83;40.98
4570;BME280;2297;51.442;6.996;2023-05-01T04:11:33;100222.47;;;13.84;41.00
4570;BME280;2297;51.442;6.996;2023-05-01T04:13:59;100219.06;;;13.80;40.95
4570;BME280;2297;51.442;6.996;2023-05-01T04:16:26;100217.22;;;13.82;40.94
4570;BME280;2297;51.442;6.996;2023-05-01T04:18:53;100222.66;;;13.79;41.35
4570;BME280;2297;51.442;6.996;2023-05-01T04:21:19;100215.63;;;13.78;41.01
4570;BME280;2297;51.442;6.996;2023-05-01T04:23:46;100218.31;;;13.76;41.39
4570;BME280;2297;51.442;6.996;2023-05-01T04:26:14;100215.50;;;13.81;41.48
4570;BME280;2297;51.442;6.996;2023-05-01T04:28:41;100217.28;;;13.80;41.11
4570;BME280;2297;51.442;6.996;2023-05-01T04:31:07;100213.81;;;13.78;41.32
4570;BME280;2297;51.442;6.996;2023-05-01T04:33:34;100211.16;;;13.78;41.04
4570;BME280;2297;51.442;6.996;2023-05-01T04:36:00;100210.38;;;13.76;41.25
4570;BME280;2297;51.442;6.996;2023-05-01T04:38:27;100212.19;;;13.74;41.21
4570;BME280;2297;51.442;6.996;2023-05-01T04:40:55;100210.44;;;13.75;41.47
4570;BME280;2297;51.442;6.996;2023-05-01T04:43:23;100213.03;;;13.76;41.54
4570;BME280;2297;51.442;6.996;2023-05-01T04:45:49;100205.84;;;13.78;41.56
4570;BME280;2297;51.442;6.996;2023-05-01T04:48:16;100205.00;;;13.78;41.52
4570;BME280;2297;51.442;6.996;2023-05-01T04:50:42;100203.25;;;13.77;41.42
4570;BME280;2297;51.442;6.996;2023-05-01T04:53:09;100204.94;;;13.79;41.25
4570;BME280;2297;51.442;6.996;2023-05-01T04:55:36;100214.56;;;13.82;41.54
4570;BME280;2297;51.442;6.996;2023-05-01T04:58:02;100210.09;;;13.84;41.36
4570;BME280;2297;51.442;6.996;2023-05-01T05:00:31;100207.38;;;13.86;41.49
4570;BME280;2297;51.442;6.996;2023-05-01T05:02:58;100205.63;;;13.85;41.52
4570;BME280;2297;51.442;6.996;2023-05-01T05:05:24;100202.94;;;13.86;41.59
4570;BME280;2297;51.442;6.996;2023-05-01T05:07:51;100210.09;;;13.84;41.67
4570;BME280;2297;51.442;6.996;2023-05-01T05:10:18;100209.09;;;13.87;41.88
4570;BME280;2297;51.442;6.996;2023-05-01T05:12:44;100214.31;;;13.90;41.87
4570;BME280;2297;51.442;6.996;2023-05-01T05:15:11;100214.31;;;13.90;41.54
4570;BME280;2297;51.442;6.996;2023-05-01T05:17:39;100214.19;;;13.93;41.71
4570;BME280;2297;51.442;6.996;2023-05-01T05:20:07;100210.63;;;13.94;41.82
4570;BME280;2297;51.442;6.996;2023-05-01T05:22:35;100212.22;;;13.98;41.54
4570;BME280;2297;51.442;6.996;2023-05-01T05:25:01;100209.44;;;14.03;41.30
4570;BME280;2297;51.442;6.996;2023-05-01T05:27:29;100210.16;;;14.06;41.35
4570;BME280;2297;51.442;6.996;2023-05-01T05:30:00;100202.19;;;14.06;41.18
4570;BME280;2297;51.442;6.996;2023-05-01T05:32:27;100202.13;;;14.08;41.24
4570;BME280;2297;51.442;6.996;2023-05-01T05:34:56;100201.22;;;14.09;41.43
4570;BME280;2297;51.442;6.996;2023-05-01T05:37:23;100210.72;;;14.14;41.11
4570;BME280;2297;51.442;6.996;2023-05-01T05:39:50;100204.50;;;14.16;41.44
4570;BME280;2297;51.442;6.996;2023-05-01T05:42:17;100203.47;;;14.21;41.10
4570;BME280;2297;51.442;6.996;2023-05-01T05:44:44;100206.78;;;14.26;40.69
4570;BME280;2297;51.442;6.996;2023-05-01T05:47:10;100200.38;;;14.32;40.81
4570;BME280;2297;51.442;6.996;2023-05-01T05:49:37;100199.34;;;14.36;40.69
4570;BME280;2297;51.442;6.996;2023-05-01T05:52:05;100196.44;;;14.42;40.72
4570;BME280;2297;51.442;6.996;2023-05-01T05:54:32;100200.75;;;14.45;40.77
4570;BME280;2297;51.442;6.996;2023-05-01T05:56:58;100196.06;;;14.52;40.44
4570;BME280;2297;51.442;6.996;2023-05-01T05:59:25;100199.41;;;14.57;40.41
4570;BME280;2297;51.442;6.996;2023-05-01T06:01:52;100197.34;;;14.65;40.45
4570;BME280;2297;51.442;6.996;2023-05-01T06:04:18;100198.13;;;14.67;39.90
4570;BME280;2297;51.442;6.996;2023-05-01T06:06:45;100197.00;;;14.73;39.79
4570;BME280;2297;51.442;6.996;2023-05-01T06:09:13;100189.66;;;14.79;39.15
4570;BME280;2297;51.442;6.996;2023-05-01T06:11:41;100193.00;;;14.85;39.30
4570;BME280;2297;51.442;6.996;2023-05-01T06:14:08;100194.59;;;14.89;38.98
4570;BME280;2297;51.442;6.996;2023-05-01T06:16:35;100193.56;;;14.93;38.82
4570;BME280;2297;51.442;6.996;2023-05-01T06:19:01;100189.59;;;15.03;39.43
4570;BME280;2297;51.442;6.996;2023-05-01T06:21:28;100200.44;;;14.99;39.99
4570;BME280;2297;51.442;6.996;2023-05-01T06:23:56;100196.72;;;15.03;40.49
4570;BME280;2297;51.442;6.996;2023-05-01T06:26:24;100195.84;;;15.02;40.99
4570;BME280;2297;51.442;6.996;2023-05-01T06:28:51;100191.19;;;15.07;40.70
4570;BME280;2297;51.442;6.996;2023-05-01T06:31:18;100196.47;;;15.09;40.97
4570;BME280;2297;51.442;6.996;2023-05-01T06:33:45;100202.41;;;15.16;40.70
4570;BME280;2297;51.442;6.996;2023-05-01T06:36:12;100193.25;;;15.23;40.47
4570;BME280;2297;51.442;6.996;2023-05-01T06:38:38;100184.34;;;15.24;40.46
4570;BME280;2297;51.442;6.996;2023-05-01T06:41:06;100185.78;;;15.31;40.53
4570;BME280;2297;51.442;6.996;2023-05-01T06:43:34;100188.06;;;15.40;39.88
4570;BME280;2297;51.442;6.996;2023-05-01T06:46:01;100192.97;;;15.50;39.50
4570;BME280;2297;51.442;6.996;2023-05-01T06:48:27;100189.06;;;15.58;39.03
4570;BME280;2297;51.442;6.996;2023-05-01T06:50:54;100192.91;;;15.51;35.85
4570;BME280;2297;51.442;6.996;2023-05-01T06:53:21;100195.13;;;15.41;35.21
4570;BME280;2297;51.442;6.996;2023-05-01T06:55:48;100189.94;;;15.38;34.92
4570;BME280;2297;51.442;6.996;2023-05-01T06:58:14;100191.72;;;15.38;34.72
4570;BME280;2297;51.442;6.996;2023-05-01T07:00:42;100195.25;;;15.59;34.29
4570;BME280;2297;51.442;6.996;2023-05-01T07:03:09;100199.66;;;15.60;34.32
4570;BME280;2297;51.442;6.996;2023-05-01T07:05:36;100196.25;;;15.77;33.98
4570;BME280;2297;51.442;6.996;2023-05-01T07:08:04;100199.91;;;15.74;33.82
4570;BME280;2297;51.442;6.996;2023-05-01T07:10:31;100189.66;;;15.65;34.33
4570;BME280;2297;51.442;6.996;2023-05-01T07:12:58;100193.91;;;15.69;34.26
4570;BME280;2297;51.442;6.996;2023-05-01T07:15:25;100199.63;;;15.80;33.46
4570;BME280;2297;51.442;6.996;2023-05-01T07:17:53;100193.03;;;15.89;33.96
4570;BME280;2297;51.442;6.996;2023-05-01T07:20:20;100198.09;;;15.95;33.95
4570;BME280;2297;51.442;6.996;2023-05-01T07:22:47;100195.75;;;15.88;34.12
4570;BME280;2297;51.442;6.996;2023-05-01T07:25:13;100195.03;;;15.84;33.94
4570;BME280;2297;51.442;6.996;2023-05-01T07:27:40;100195.25;;;15.79;33.93
4570;BME280;2297;51.442;6.996;2023-05-01T07:30:08;100188.69;;;15.87;33.87
4570;BME280;2297;51.442;6.996;2023-05-01T07:32:34;100195.16;;;15.81;33.78
4570;BME280;2297;51.442;6.996;2023-05-01T07:35:03;100195.81;;;15.67;34.19
4570;BME280;2297;51.442;6.996;2023-05-01T07:37:30;100189.09;;;15.77;34.05
4570;BME280;2297;51.442;6.996;2023-05-01T07:39:57;100190.06;;;15.76;34.49
4570;BME280;2297;51.442;6.996;2023-05-01T07:42:25;100186.75;;;15.71;34.63
4570;BME280;2297;51.442;6.996;2023-05-01T07:44:51;100190.69;;;15.82;34.08
4570;BME280;2297;51.442;6.996;2023-05-01T07:47:18;100189.47;;;15.49;34.67
4570;BME280;2297;51.442;6.996;2023-05-01T07:49:44;100188.88;;;15.42;34.34
4570;BME280;2297;51.442;6.996;2023-05-01T07:52:12;100185.41;;;15.61;34.57
4570;BME280;2297;51.442;6.996;2023-05-01T07:54:40;100185.63;;;15.96;34.07
4570;BME280;2297;51.442;6.996;2023-05-01T07:57:07;100174.47;;;15.88;34.45
4570;BME280;2297;51.442;6.996;2023-05-01T07:59:33;100191.28;;;16.09;34.03
4570;BME280;2297;51.442;6.996;2023-05-01T08:02:00;100182.94;;;15.77;34.25
4570;BME280;2297;51.442;6.996;2023-05-01T08:04:27;100178.41;;;16.00;33.91
4570;BME280;2297;51.442;6.996;2023-05-01T08:10:18;100174.69;;;16.23;33.90
4570;BME280;2297;51.442;6.996;2023-05-01T08:12:44;100177.84;;;16.31;33.88
4570;BME280;2297;51.442;6.996;2023-05-01T08:15:11;100174.44;;;16.27;33.74
4570;BME280;2297;51.442;6.996;2023-05-01T08:17:38;100173.09;;;16.38;33.46
4570;BME280;2297;51.442;6.996;2023-05-01T08:20:05;100179.59;;;16.32;33.89
4570;BME280;2297;51.442;6.996;2023-05-01T08:22:32;100172.78;;;16.63;33.13
4570;BME280;2297;51.442;6.996;2023-05-01T08:24:59;100172.44;;;16.69;32.96
4570;BME280;2297;51.442;6.996;2023-05-01T08:27:27;100172.09;;;16.77;33.07
4570;BME280;2297;51.442;6.996;2023-05-01T08:29:53;100167.84;;;16.36;33.30
4570;BME280;2297;51.442;6.996;2023-05-01T08:32:20;100164.28;;;16.55;33.17
4570;BME280;2297;51.442;6.996;2023-05-01T08:34:46;100163.28;;;16.38;33.39
4570;BME280;2297;51.442;6.996;2023-05-01T08:37:13;100168.56;;;16.76;33.76
4570;BME280;2297;51.442;6.996;2023-05-01T08:39:39;100167.75;;;16.74;32.89
4570;BME280;2297;51.442;6.996;2023-05-01T08:42:07;100168.69;;;15.78;34.52
4570;BME280;2297;51.442;6.996;2023-05-01T08:44:37;100169.63;;;16.17;34.09
4570;BME280;2297;51.442;6.996;2023-05-01T08:47:09;100175.06;;;16.52;33.72
4570;BME280;2297;51.442;6.996;2023-05-01T08:49:39;100168.28;;;16.83;33.45
4570;BME280;2297;51.442;6.996;2023-05-01T08:52:07;100164.84;;;16.98;33.25
4570;BME280;2297;51.442;6.996;2023-05-01T08:54:34;100165.44;;;17.22;32.91
4570;BME280;2297;51.442;6.996;2023-05-01T08:57:05;100163.75;;;17.02;32.67
4570;BME280;2297;51.442;6.996;2023-05-01T08:59:33;100162.59;;;16.71;32.48
4570;BME280;2297;51.442;6.996;2023-05-01T09:02:02;100168.69;;;16.92;32.80
4570;BME280;2297;51.442;6.996;2023-05-01T09:04:31;100170.69;;;17.24;32.67
4570;BME280;2297;51.442;6.996;2023-05-01T09:06:58;100160.19;;;17.38;31.86
4570;BME280;2297;51.442;6.996;2023-05-01T09:09:26;100158.59;;;17.34;32.44
4570;BME280;2297;51.442;6.996;2023-05-01T09:11:53;100161.44;;;17.66;32.06
4570;BME280;2297;51.442;6.996;2023-05-01T09:14:21;100160.44;;;17.85;31.85
4570;BME280;2297;51.442;6.996;2023-05-01T09:16:48;100162.06;;;17.87;31.88
4570;BME280;2297;51.442;6.996;2023-05-01T09:19:16;100162.47;;;17.62;32.07
4570;BME280;2297;51.442;6.996;2023-05-01T09:21:43;100169.56;;;17.63;32.15
4570;BME280;2297;51.442;6.996;2023-05-01T09:24:10;100160.00;;;17.92;31.92
4570;BME280;2297;51.442;6.996;2023-05-01T09:26:38;100157.47;;;18.23;31.93
4570;BME280;2297;51.442;6.996;2023-05-01T09:29:06;100157.88;;;18.49;31.81
4570;BME280;2297;51.442;6.996;2023-05-01T09:31:36;100150.25;;;18.73;31.33
4570;BME280;2297;51.442;6.996;2023-05-01T09:34:03;100160.56;;;18.95;30.39
4570;BME280;2297;51.442;6.996;2023-05-01T09:36:33;100158.25;;;18.89;30.45
4570;BME280;2297;51.442;6.996;2023-05-01T09:39:01;100152.88;;;18.89;30.33
4570;BME280;2297;51.442;6.996;2023-05-01T09:41:29;100156.50;;;18.88;29.65
4570;BME280;2297;51.442;6.996;2023-05-01T09:43:57;100152.41;;;18.66;29.47
4570;BME280;2297;51.442;6.996;2023-05-01T09:46:26;100144.47;;;19.11;29.48
4570;BME280;2297;51.442;6.996;2023-05-01T09:48:56;100153.63;;;19.23;29.54
4570;BME280;2297;51.442;6.996;2023-05-01T09:51:25;100138.31;;;19.25;29.82
4570;BME280;2297;51.442;6.996;2023-05-01T09:53:54;100153.28;;;19.58;29.81
4570;BME280;2297;51.442;6.996;2023-05-01T09:56:21;100150.13;;;19.51;29.71
4570;BME280;2297;51.442;6.996;2023-05-01T09:58:49;100141.63;;;19.59;29.71
4570;BME280;2297;51.442;6.996;2023-05-01T10:01:16;100139.06;;;19.72;29.74
4570;BME280;2297;51.442;6.996;2023-05-01T10:03:43;100147.34;;;19.67;29.73
4570;BME280;2297;51.442;6.996;2023-05-01T10:06:10;100146.66;;;19.35;29.54
4570;BME280;2297;51.442;6.996;2023-05-01T10:08:44;100145.16;;;19.59;29.27
4570;BME280;2297;51.442;6.996;2023-05-01T10:11:13;100134.53;;;19.72;29.25
4570;BME280;2297;51.442;6.996;2023-05-01T10:13:40;100137.34;;;20.00;29.36
4570;BME280;2297;51.442;6.996;2023-05-01T10:16:26;100132.50;;;20.19;29.16
4570;BME280;2297;51.442;6.996;2023-05-01T10:18:54;100140.09;;;19.98;28.95
4570;BME280;2297;51.442;6.996;2023-05-01T10:21:21;100141.97;;;19.38;29.88
4570;BME280;2297;51.442;6.996;2023-05-01T10:23:48;100135.53;;;20.00;29.43
4570;BME280;2297;51.442;6.996;2023-05-01T10:26:17;100144.31;;;19.73;29.95
4570;BME280;2297;51.442;6.996;2023-05-01T10:28:46;100139.91;;;19.87;29.20
4570;BME280;2297;51.442;6.996;2023-05-01T10:31:14;100139.13;;;20.14;29.25
4570;BME280;2297;51.442;6.996;2023-05-01T10:33:41;100131.38;;;20.51;29.20
4570;BME280;2297;51.442;6.996;2023-05-01T10:36:10;100139.44;;;20.65;28.87
4570;BME280;2297;51.442;6.996;2023-05-01T10:38:38;100132.13;;;20.25;28.67
4570;BME280;2297;51.442;6.996;2023-05-01T10:41:10;100131.28;;;20.25;28.28
4570;BME280;2297;51.442;6.996;2023-05-01T10:43:38;100135.03;;;20.50;28.00
4570;BME280;2297;51.442;6.996;2023-05-01T10:46:25;100133.22;;;20.77;27.51
4570;BME280;2297;51.442;6.996;2023-05-01T10:48:54;100127.25;;;20.87;27.64
4570;BME280;2297;51.442;6.996;2023-05-01T10:51:22;100126.00;;;21.05;27.05
4570;BME280;2297;51.442;6.996;2023-05-01T10:56:58;100128.84;;;20.76;26.95
4570;BME280;2297;51.442;6.996;2023-05-01T10:59:27;100117.03;;;20.52;27.44
4570;BME280;2297;51.442;6.996;2023-05-01T11:02:20;100112.66;;;20.91;26.24
4570;BME280;2297;51.442;6.996;2023-05-01T11:04:56;100117.75;;;20.68;26.90
4570;BME280;2297;51.442;6.996;2023-05-01T11:07:22;100110.47;;;20.28;26.80
4570;BME280;2297;51.442;6.996;2023-05-01T11:09:51;100105.50;;;20.37;27.32
4570;BME280;2297;51.442;6.996;2023-05-01T11:12:48;100105.31;;;20.25;28.00
4570;BME280;2297;51.442;6.996;2023-05-01T11:15:33;100106.19;;;20.53;28.36
4570;BME280;2297;51.442;6.996;2023-05-01T11:18:00;100107.03;;;20.54;27.96
4570;BME280;2297;51.442;6.996;2023-05-01T11:20:47;100105.41;;;21.06;27.33
4570;BME280;2297;51.442;6.996;2023-05-01T11:23:21;100091.19;;;20.91;27.25
4570;BME280;2297;51.442;6.996;2023-05-01T11:25:49;100092.84;;;21.19;27.40
4570;BME280;2297;51.442;6.996;2023-05-01T11:28:28;100098.78;;;21.37;27.12
4570;BME280;2297;51.442;6.996;2023-05-01T11:30:57;100098.34;;;21.18;27.36
4570;BME280;2297;51.442;6.996;2023-05-01T11:33:24;100097.91;;;21.24;27.88
4570;BME280;2297;51.442;6.996;2023-05-01T11:36:01;100099.66;;;21.38;27.23
4570;BME280;2297;51.442;6.996;2023-05-01T11:38:29;100105.97;;;21.11;27.11
4570;BME280;2297;51.442;6.996;2023-05-01T11:41:02;100099.72;;;21.10;26.61
4570;BME280;2297;51.442;6.996;2023-05-01T11:43:29;100093.97;;;20.76;27.04
4570;BME280;2297;51.442;6.996;2023-05-01T11:45:57;100095.19;;;20.98;26.75
4570;BME280;2297;51.442;6.996;2023-05-01T11:48:30;100099.22;;;20.51;26.31
4570;BME280;2297;51.442;6.996;2023-05-01T11:50:57;100091.63;;;20.30;26.94
4570;BME280;2297;51.442;6.996;2023-05-01T11:53:24;100093.41;;;20.02;26.85
4570;BME280;2297;51.442;6.996;2023-05-01T11:55:50;100085.53;;;20.14;27.27
4570;BME280;2297;51.442;6.996;2023-05-01T11:58:17;100098.78;;;20.02;27.23
4570;BME280;2297;51.442;6.996;2023-05-01T12:00:55;100097.97;;;19.86;27.51
4570;BME280;2297;51.442;6.996;2023-05-01T12:03:23;100084.72;;;20.26;27.88
4570;BME280;2297;51.442;6.996;2023-05-01T12:05:51;100090.72;;;19.88;27.38
4570;BME280;2297;51.442;6.996;2023-05-01T12:08:19;100091.56;;;20.17;27.04
4570;BME280;2297;51.442;6.996;2023-05-01T12:10:49;100083.00;;;20.52;26.69
4570;BME280;2297;51.442;6.996;2023-05-01T12:13:16;100094.25;;;20.44;26.98
4570;BME280;2297;51.442;6.996;2023-05-01T12:15:45;100100.00;;;19.97;27.24
4570;BME280;2297;51.442;6.996;2023-05-01T12:18:13;100087.63;;;20.50;27.82
4570;BME280;2297;51.442;6.996;2023-05-01T12:20:43;100082.75;;;20.15;27.40
4570;BME280;2297;51.442;6.996;2023-05-01T12:23:11;100090.91;;;19.99;27.79
4570;BME280;2297;51.442;6.996;2023-05-01T12:25:38;100084.53;;;20.29;27.87
4570;BME280;2297;51.442;6.996;2023-05-01T12:28:09;100074.81;;;20.14;27.82
4570;BME280;2297;51.442;6.996;2023-05-01T12:30:37;100080.06;;;20.15;27.71
4570;BME280;2297;51.442;6.996;2023-05-01T12:33:08;100089.41;;;19.95;28.10
4570;BME280;2297;51.442;6.996;2023-05-01T12:35:36;100106.31;;;19.38;31.91
4570;BME280;2297;51.442;6.996;2023-05-01T12:38:11;100098.94;;;19.70;29.24
4570;BME280;2297;51.442;6.996;2023-05-01T12:40:38;100105.28;;;19.84;29.16
4570;BME280;2297;51.442;6.996;2023-05-01T12:43:05;100094.94;;;19.92;31.35
4570;BME280;2297;51.442;6.996;2023-05-01T12:45:37;100081.72;;;20.03;31.82
4570;BME280;2297;51.442;6.996;2023-05-01T12:48:10;100080.38;;;20.10;32.75
4570;BME280;2297;51.442;6.996;2023-05-01T12:50:37;100076.16;;;20.21;32.60
4570;BME280;2297;51.442;6.996;2023-05-01T12:53:04;100076.53;;;20.15;33.24
4570;BME280;2297;51.442;6.996;2023-05-01T12:55:41;100075.53;;;20.30;32.15
4570;BME280;2297;51.442;6.996;2023-05-01T12:58:10;100074.31;;;20.49;30.66
4570;BME280;2297;51.442;6.996;2023-05-01T13:00:43;100073.75;;;20.71;31.29
4570;BME280;2297;51.442;6.996;2023-05-01T13:03:13;100062.09;;;20.85;32.21
4570;BME280;2297;51.442;6.996;2023-05-01T13:05:53;100063.09;;;20.97;32.06
4570;BME280;2297;51.442;6.996;2023-05-01T13:08:25;100063.41;;;21.05;32.17
4570;BME280;2297;51.442;6.996;2023-05-01T13:10:55;100065.66;;;20.98;30.90
4570;BME280;2297;51.442;6.996;2023-05-01T13:13:27;100050.44;;;20.31;27.85
4570;BME280;2297;51.442;6.996;2023-05-01T13:16:02;100054.69;;;20.75;29.68
4570;BME280;2297;51.442;6.996;2023-05-01T13:18:30;100058.97;;;20.91;30.72
4570;BME280;2297;51.442;6.996;2023-05-01T13:21:05;100060.22;;;21.13;30.09
4570;BME280;2297;51.442;6.996;2023-05-01T13:23:32;100064.41;;;21.30;29.61
4570;BME280;2297;51.442;6.996;2023-05-01T13:26:00;100054.97;;;21.37;29.22